BEL3DQ EBBR-EDDF
Flight info
| Callsign | BEL3DQ |
|---|---|
| Flight time | 0h 41m |
| Altitude | 23000 |
| Route | SPI T180 NIVNU T847 IMCOM IMCOM1A |
| Aircraft | A320/M-SDE3FGHIRWY/LB1 |
Departure
| Time | 2026-05-06 14:59 |
|---|---|
| Airport | Brussels Airport (EBBR) |
Arrival
| Time | 2026-05-06 15:40 |
|---|---|
| Airport | Frankfurt Main Airport (EDDF) |
| Time | Latitude | Longitude | Altitude | Speed | Heading |
|---|---|---|---|---|---|
| 2026-05-06 14:26 | 50.90414 | 4.49046 | 121 ft | 0 kts | 335° |
| 2026-05-06 14:45 | 50.90413 | 4.49047 | 121 ft | 2 kts | 335° |
| 2026-05-06 14:46 | 50.90390 | 4.49063 | 118 ft | 4 kts | 336° |
| 2026-05-06 14:46 | 50.90365 | 4.49079 | 118 ft | 4 kts | 344° |
| 2026-05-06 14:46 | 50.90340 | 4.49085 | 122 ft | 4 kts | 22° |
| 2026-05-06 14:46 | 50.90330 | 4.49075 | 119 ft | 0 kts | 65° |
| 2026-05-06 14:54 | 50.90337 | 4.49098 | 121 ft | 9 kts | 65° |
| 2026-05-06 14:55 | 50.90382 | 4.49253 | 120 ft | 19 kts | 65° |
| 2026-05-06 14:55 | 50.90439 | 4.49450 | 121 ft | 21 kts | 65° |
| 2026-05-06 14:55 | 50.90525 | 4.49622 | 120 ft | 20 kts | 18° |
| 2026-05-06 14:55 | 50.90667 | 4.49679 | 122 ft | 22 kts | 14° |
| 2026-05-06 14:56 | 50.90819 | 4.49742 | 121 ft | 23 kts | 14° |
| 2026-05-06 14:56 | 50.90953 | 4.49828 | 122 ft | 21 kts | 37° |
| 2026-05-06 14:56 | 50.91035 | 4.49906 | 118 ft | 0 kts | 36° |
| 2026-05-06 14:56 | 50.91043 | 4.49914 | 120 ft | 7 kts | 31° |
| 2026-05-06 14:57 | 50.91096 | 4.49942 | 120 ft | 4 kts | 359° |
| 2026-05-06 14:57 | 50.91133 | 4.49837 | 119 ft | 20 kts | 255° |
| 2026-05-06 14:57 | 50.91106 | 4.49782 | 117 ft | 0 kts | 245° |
| 2026-05-06 14:58 | 50.91083 | 4.49705 | 117 ft | 38 kts | 245° |
| 2026-05-06 14:58 | 50.90869 | 4.48931 | 118 ft | 111 kts | 248° |
| 2026-05-06 14:58 | 50.90482 | 4.47530 | 135 ft | 163 kts | 246° |
| 2026-05-06 14:59 | 50.89995 | 4.45895 | 671 ft | 165 kts | 248° |
| 2026-05-06 14:59 | 50.89499 | 4.44287 | 1447 ft | 162 kts | 247° |
| 2026-05-06 14:59 | 50.88984 | 4.42710 | 2178 ft | 161 kts | 241° |
| 2026-05-06 14:59 | 50.88278 | 4.41329 | 2851 ft | 162 kts | 228° |
| 2026-05-06 15:00 | 50.87386 | 4.40215 | 3443 ft | 166 kts | 213° |
| 2026-05-06 15:00 | 50.86239 | 4.39470 | 3704 ft | 191 kts | 193° |
| 2026-05-06 15:00 | 50.84845 | 4.39276 | 4066 ft | 211 kts | 176° |
| 2026-05-06 15:00 | 50.83341 | 4.39763 | 4434 ft | 234 kts | 157° |
| 2026-05-06 15:01 | 50.81890 | 4.41160 | 4881 ft | 255 kts | 135° |
| 2026-05-06 15:01 | 50.80799 | 4.43474 | 5376 ft | 271 kts | 111° |
| 2026-05-06 15:01 | 50.80227 | 4.46340 | 6249 ft | 277 kts | 104° |
| 2026-05-06 15:01 | 50.79660 | 4.49278 | 7125 ft | 282 kts | 106° |
| 2026-05-06 15:02 | 50.79013 | 4.52231 | 8037 ft | 286 kts | 108° |
| 2026-05-06 15:02 | 50.78331 | 4.55204 | 8971 ft | 289 kts | 108° |
| 2026-05-06 15:02 | 50.77647 | 4.58198 | 9898 ft | 292 kts | 108° |
| 2026-05-06 15:02 | 50.76956 | 4.61307 | 10354 ft | 311 kts | 108° |
| 2026-05-06 15:03 | 50.76248 | 4.64660 | 10661 ft | 334 kts | 107° |
| 2026-05-06 15:03 | 50.75528 | 4.68243 | 11147 ft | 347 kts | 105° |
| 2026-05-06 15:03 | 50.74822 | 4.71921 | 11846 ft | 353 kts | 105° |
| 2026-05-06 15:03 | 50.74109 | 4.75656 | 12587 ft | 358 kts | 106° |
| 2026-05-06 15:04 | 50.73347 | 4.79413 | 13409 ft | 360 kts | 107° |
| 2026-05-06 15:04 | 50.72542 | 4.83177 | 14141 ft | 364 kts | 107° |
| 2026-05-06 15:04 | 50.71717 | 4.86966 | 14823 ft | 367 kts | 108° |
| 2026-05-06 15:04 | 50.70893 | 4.90747 | 15493 ft | 371 kts | 108° |
| 2026-05-06 15:05 | 50.70054 | 4.94616 | 16135 ft | 375 kts | 108° |
| 2026-05-06 15:05 | 50.69210 | 4.98536 | 16742 ft | 381 kts | 108° |
| 2026-05-06 15:05 | 50.68358 | 5.02507 | 17402 ft | 384 kts | 108° |
| 2026-05-06 15:05 | 50.67502 | 5.06514 | 18067 ft | 387 kts | 109° |
| 2026-05-06 15:06 | 50.66640 | 5.10565 | 18643 ft | 391 kts | 109° |
| 2026-05-06 15:06 | 50.65772 | 5.14647 | 19205 ft | 395 kts | 109° |
| 2026-05-06 15:06 | 50.64894 | 5.18763 | 19811 ft | 397 kts | 109° |
| 2026-05-06 15:06 | 50.64010 | 5.22886 | 20476 ft | 398 kts | 109° |
| 2026-05-06 15:07 | 50.63120 | 5.27030 | 21109 ft | 401 kts | 109° |
| 2026-05-06 15:07 | 50.62243 | 5.31218 | 21730 ft | 403 kts | 108° |
| 2026-05-06 15:07 | 50.61384 | 5.35428 | 22347 ft | 405 kts | 108° |
| 2026-05-06 15:07 | 50.60530 | 5.39661 | 22789 ft | 407 kts | 108° |
| 2026-05-06 15:08 | 50.59677 | 5.43907 | 22895 ft | 407 kts | 108° |
| 2026-05-06 15:08 | 50.58823 | 5.48148 | 22892 ft | 406 kts | 108° |
| 2026-05-06 15:08 | 50.57964 | 5.52382 | 22894 ft | 406 kts | 108° |
| 2026-05-06 15:08 | 50.57097 | 5.56607 | 22891 ft | 406 kts | 108° |
| 2026-05-06 15:09 | 50.56228 | 5.60826 | 22890 ft | 406 kts | 108° |
| 2026-05-06 15:09 | 50.55355 | 5.65050 | 22888 ft | 407 kts | 108° |
| 2026-05-06 15:09 | 50.54477 | 5.69283 | 22889 ft | 407 kts | 108° |
| 2026-05-06 15:09 | 50.53601 | 5.73506 | 22888 ft | 407 kts | 108° |
| 2026-05-06 15:10 | 50.52720 | 5.77741 | 22883 ft | 407 kts | 108° |
| 2026-05-06 15:10 | 50.51837 | 5.81975 | 22891 ft | 407 kts | 108° |
| 2026-05-06 15:10 | 50.50956 | 5.86192 | 22891 ft | 407 kts | 108° |
| 2026-05-06 15:10 | 50.50072 | 5.90409 | 22884 ft | 407 kts | 109° |
| 2026-05-06 15:11 | 50.49185 | 5.94637 | 22874 ft | 407 kts | 109° |
| 2026-05-06 15:11 | 50.48299 | 5.98850 | 22874 ft | 406 kts | 109° |
| 2026-05-06 15:11 | 50.47413 | 6.03055 | 22876 ft | 406 kts | 109° |
| 2026-05-06 15:11 | 50.46524 | 6.07267 | 22866 ft | 407 kts | 110° |
| 2026-05-06 15:12 | 50.45633 | 6.11492 | 22852 ft | 408 kts | 110° |
| 2026-05-06 15:12 | 50.44741 | 6.15718 | 22830 ft | 408 kts | 110° |
| 2026-05-06 15:12 | 50.43844 | 6.19947 | 22833 ft | 409 kts | 110° |
| 2026-05-06 15:12 | 50.42944 | 6.24173 | 22831 ft | 409 kts | 110° |
| 2026-05-06 15:13 | 50.42041 | 6.28411 | 22839 ft | 409 kts | 110° |
| 2026-05-06 15:13 | 50.41137 | 6.32643 | 22818 ft | 409 kts | 110° |
| 2026-05-06 15:13 | 50.40230 | 6.36876 | 22820 ft | 409 kts | 110° |
| 2026-05-06 15:13 | 50.39325 | 6.41103 | 22818 ft | 409 kts | 110° |
| 2026-05-06 15:14 | 50.38419 | 6.45329 | 22820 ft | 409 kts | 110° |
| 2026-05-06 15:14 | 50.37510 | 6.49558 | 22807 ft | 410 kts | 110° |
| 2026-05-06 15:14 | 50.36598 | 6.53785 | 22802 ft | 410 kts | 110° |
| 2026-05-06 15:14 | 50.35679 | 6.58026 | 22801 ft | 411 kts | 111° |
| 2026-05-06 15:15 | 50.34759 | 6.62267 | 22806 ft | 412 kts | 111° |
| 2026-05-06 15:15 | 50.33839 | 6.66510 | 22801 ft | 412 kts | 111° |
| 2026-05-06 15:15 | 50.32913 | 6.70761 | 22801 ft | 412 kts | 111° |
| 2026-05-06 15:15 | 50.31986 | 6.75006 | 22796 ft | 413 kts | 111° |
| 2026-05-06 15:16 | 50.31058 | 6.79254 | 22795 ft | 413 kts | 111° |
| 2026-05-06 15:16 | 50.30126 | 6.83502 | 22793 ft | 413 kts | 111° |
| 2026-05-06 15:16 | 50.29193 | 6.87747 | 22798 ft | 413 kts | 111° |
| 2026-05-06 15:16 | 50.28266 | 6.91964 | 22555 ft | 406 kts | 111° |
| 2026-05-06 15:17 | 50.27357 | 6.96101 | 22093 ft | 401 kts | 111° |
| 2026-05-06 15:17 | 50.26466 | 7.00147 | 21618 ft | 397 kts | 111° |
| 2026-05-06 15:17 | 50.25571 | 7.04200 | 21136 ft | 393 kts | 111° |
| 2026-05-06 15:17 | 50.24679 | 7.08224 | 20645 ft | 390 kts | 111° |
| 2026-05-06 15:18 | 50.23791 | 7.12217 | 20154 ft | 388 kts | 111° |
| 2026-05-06 15:18 | 50.22908 | 7.16187 | 19658 ft | 386 kts | 111° |
| 2026-05-06 15:18 | 50.22028 | 7.20137 | 19146 ft | 384 kts | 112° |
| 2026-05-06 15:18 | 50.21148 | 7.24068 | 18639 ft | 383 kts | 112° |
| 2026-05-06 15:19 | 50.20267 | 7.27989 | 18123 ft | 382 kts | 112° |
| 2026-05-06 15:19 | 50.19406 | 7.31825 | 17570 ft | 381 kts | 112° |
| 2026-05-06 15:19 | 50.18534 | 7.35709 | 17059 ft | 378 kts | 111° |
| 2026-05-06 15:19 | 50.17673 | 7.39562 | 16578 ft | 374 kts | 111° |
| 2026-05-06 15:20 | 50.16818 | 7.43381 | 16075 ft | 372 kts | 111° |
| 2026-05-06 15:20 | 50.15965 | 7.47171 | 15580 ft | 369 kts | 111° |
| 2026-05-06 15:20 | 50.15115 | 7.50939 | 15105 ft | 367 kts | 111° |
| 2026-05-06 15:20 | 50.14267 | 7.54687 | 14623 ft | 365 kts | 111° |
| 2026-05-06 15:21 | 50.13419 | 7.58412 | 14138 ft | 364 kts | 111° |
| 2026-05-06 15:21 | 50.12573 | 7.62120 | 13651 ft | 363 kts | 111° |
| 2026-05-06 15:21 | 50.11727 | 7.65821 | 13120 ft | 361 kts | 111° |
| 2026-05-06 15:21 | 50.10685 | 7.69345 | 12657 ft | 356 kts | 123° |
| 2026-05-06 15:22 | 50.09314 | 7.72480 | 12476 ft | 346 kts | 127° |
| 2026-05-06 15:22 | 50.07948 | 7.75544 | 12244 ft | 344 kts | 127° |
| 2026-05-06 15:22 | 50.06595 | 7.78598 | 12006 ft | 342 kts | 126° |
| 2026-05-06 15:22 | 50.05252 | 7.81633 | 11781 ft | 339 kts | 127° |
| 2026-05-06 15:23 | 50.03915 | 7.84642 | 11552 ft | 337 kts | 127° |
| 2026-05-06 15:23 | 50.02582 | 7.87633 | 11317 ft | 336 kts | 127° |
| 2026-05-06 15:23 | 50.01337 | 7.90700 | 11086 ft | 337 kts | 117° |
| 2026-05-06 15:23 | 50.00587 | 7.94150 | 10862 ft | 339 kts | 102° |
| 2026-05-06 15:24 | 50.00446 | 7.97798 | 10706 ft | 340 kts | 86° |
| 2026-05-06 15:24 | 50.00910 | 8.01386 | 10625 ft | 340 kts | 71° |
| 2026-05-06 15:24 | 50.01746 | 8.04834 | 10523 ft | 341 kts | 70° |
| 2026-05-06 15:24 | 50.02591 | 8.08282 | 10423 ft | 341 kts | 70° |
| 2026-05-06 15:25 | 50.03430 | 8.11719 | 10326 ft | 340 kts | 70° |
| 2026-05-06 15:25 | 50.04267 | 8.15158 | 10232 ft | 340 kts | 70° |
| 2026-05-06 15:25 | 50.05103 | 8.18597 | 10124 ft | 339 kts | 70° |
| 2026-05-06 15:25 | 50.05931 | 8.22002 | 10015 ft | 332 kts | 70° |
| 2026-05-06 15:26 | 50.06731 | 8.25299 | 9892 ft | 320 kts | 70° |
| 2026-05-06 15:26 | 50.07505 | 8.28492 | 9772 ft | 311 kts | 70° |
| 2026-05-06 15:26 | 50.08258 | 8.31614 | 9607 ft | 305 kts | 70° |
| 2026-05-06 15:26 | 50.08997 | 8.34686 | 9541 ft | 303 kts | 70° |
| 2026-05-06 15:27 | 50.09734 | 8.37746 | 9456 ft | 301 kts | 70° |
| 2026-05-06 15:27 | 50.10464 | 8.40781 | 9095 ft | 299 kts | 70° |
| 2026-05-06 15:27 | 50.11192 | 8.43805 | 8716 ft | 297 kts | 70° |
| 2026-05-06 15:27 | 50.11915 | 8.46811 | 8362 ft | 295 kts | 70° |
| 2026-05-06 15:28 | 50.12630 | 8.49802 | 7939 ft | 295 kts | 70° |
| 2026-05-06 15:28 | 50.13342 | 8.52795 | 7540 ft | 294 kts | 70° |
| 2026-05-06 15:28 | 50.14048 | 8.55765 | 7143 ft | 292 kts | 71° |
| 2026-05-06 15:28 | 50.14514 | 8.57729 | 6887 ft | 291 kts | 71° |
| 2026-05-06 15:29 | 50.15441 | 8.61636 | 6385 ft | 289 kts | 70° |
| 2026-05-06 15:29 | 50.16135 | 8.64562 | 5995 ft | 287 kts | 71° |
| 2026-05-06 15:29 | 50.16829 | 8.67480 | 5561 ft | 286 kts | 71° |
| 2026-05-06 15:29 | 50.17518 | 8.70374 | 5295 ft | 280 kts | 71° |
| 2026-05-06 15:30 | 50.18183 | 8.73171 | 5160 ft | 270 kts | 71° |
| 2026-05-06 15:30 | 50.18823 | 8.75865 | 5029 ft | 259 kts | 70° |
| 2026-05-06 15:30 | 50.19437 | 8.78452 | 4809 ft | 251 kts | 71° |
| 2026-05-06 15:30 | 50.19848 | 8.80191 | 4417 ft | 256 kts | 71° |
| 2026-05-06 15:31 | 50.20467 | 8.82820 | 4067 ft | 255 kts | 70° |
| 2026-05-06 15:31 | 50.21063 | 8.85349 | 4008 ft | 241 kts | 71° |
| 2026-05-06 15:31 | 50.21625 | 8.87759 | 4010 ft | 234 kts | 73° |
| 2026-05-06 15:32 | 50.21486 | 8.92665 | 4011 ft | 228 kts | 118° |
| 2026-05-06 15:32 | 50.20644 | 8.94675 | 4009 ft | 223 kts | 137° |
| 2026-05-06 15:32 | 50.19426 | 8.96114 | 4009 ft | 219 kts | 158° |
| 2026-05-06 15:32 | 50.17998 | 8.96816 | 4010 ft | 213 kts | 178° |
| 2026-05-06 15:33 | 50.16545 | 8.96663 | 4013 ft | 209 kts | 199° |
| 2026-05-06 15:33 | 50.15251 | 8.95692 | 4014 ft | 207 kts | 219° |
| 2026-05-06 15:33 | 50.14287 | 8.94062 | 4014 ft | 205 kts | 239° |
| 2026-05-06 15:33 | 50.13720 | 8.92014 | 4018 ft | 207 kts | 249° |
| 2026-05-06 15:34 | 50.13235 | 8.89930 | 4016 ft | 199 kts | 249° |
| 2026-05-06 15:34 | 50.12776 | 8.87968 | 4014 ft | 188 kts | 249° |
| 2026-05-06 15:34 | 50.12337 | 8.86097 | 4046 ft | 176 kts | 249° |
| 2026-05-06 15:34 | 50.11926 | 8.84351 | 4030 ft | 169 kts | 249° |
| 2026-05-06 15:35 | 50.11523 | 8.82639 | 4021 ft | 168 kts | 249° |
| 2026-05-06 15:35 | 50.11120 | 8.80931 | 4021 ft | 168 kts | 249° |
| 2026-05-06 15:35 | 50.10715 | 8.79216 | 3987 ft | 171 kts | 249° |
| 2026-05-06 15:35 | 50.10296 | 8.77437 | 3813 ft | 176 kts | 249° |
| 2026-05-06 15:36 | 50.09873 | 8.75648 | 3588 ft | 176 kts | 250° |
| 2026-05-06 15:36 | 50.09450 | 8.73859 | 3338 ft | 175 kts | 250° |
| 2026-05-06 15:36 | 50.09026 | 8.72068 | 3095 ft | 176 kts | 250° |
| 2026-05-06 15:36 | 50.08602 | 8.70277 | 2844 ft | 175 kts | 250° |
| 2026-05-06 15:37 | 50.08183 | 8.68510 | 2590 ft | 173 kts | 251° |
| 2026-05-06 15:37 | 50.07769 | 8.66766 | 2358 ft | 172 kts | 251° |
| 2026-05-06 15:37 | 50.07358 | 8.65045 | 2097 ft | 164 kts | 251° |
| 2026-05-06 15:37 | 50.06981 | 8.63493 | 1907 ft | 145 kts | 250° |
| 2026-05-06 15:38 | 50.06654 | 8.62055 | 1615 ft | 137 kts | 252° |
| 2026-05-06 15:38 | 50.06325 | 8.60701 | 1450 ft | 133 kts | 252° |
| 2026-05-06 15:38 | 50.06010 | 8.59379 | 1312 ft | 130 kts | 253° |
| 2026-05-06 15:38 | 50.05702 | 8.58053 | 1074 ft | 131 kts | 251° |
| 2026-05-06 15:39 | 50.05389 | 8.56741 | 853 ft | 129 kts | 252° |
| 2026-05-06 15:39 | 50.05079 | 8.55432 | 662 ft | 129 kts | 249° |
| 2026-05-06 15:39 | 50.04763 | 8.54133 | 540 ft | 128 kts | 252° |
| 2026-05-06 15:39 | 50.04454 | 8.52843 | 358 ft | 123 kts | 249° |
| 2026-05-06 15:40 | 50.04220 | 8.51836 | 333 ft | 74 kts | 250° |
| 2026-05-06 15:40 | 50.04094 | 8.51326 | 328 ft | 35 kts | 250° |
| 2026-05-06 15:40 | 50.03981 | 8.51017 | 324 ft | 32 kts | 227° |
| 2026-05-06 15:40 | 50.03834 | 8.50834 | 328 ft | 20 kts | 199° |
| 2026-05-06 15:41 | 50.03780 | 8.50873 | 330 ft | 4 kts | 102° |
| 2026-05-06 15:41 | 50.03786 | 8.50953 | 334 ft | 12 kts | 75° |
| 2026-05-06 15:41 | 50.03829 | 8.51136 | 333 ft | 23 kts | 68° |
| 2026-05-06 15:41 | 50.03888 | 8.51378 | 334 ft | 23 kts | 69° |
| 2026-05-06 15:42 | 50.03943 | 8.51603 | 335 ft | 21 kts | 70° |
| 2026-05-06 15:42 | 50.03992 | 8.51807 | 337 ft | 19 kts | 69° |
| 2026-05-06 15:42 | 50.04035 | 8.51988 | 337 ft | 17 kts | 69° |
| 2026-05-06 15:42 | 50.04072 | 8.52143 | 347 ft | 14 kts | 69° |
| 2026-05-06 15:43 | 50.04103 | 8.52269 | 347 ft | 11 kts | 70° |
| 2026-05-06 15:43 | 50.04130 | 8.52383 | 347 ft | 14 kts | 70° |
| 2026-05-06 15:43 | 50.04172 | 8.52565 | 353 ft | 20 kts | 70° |
| 2026-05-06 15:43 | 50.04223 | 8.52784 | 357 ft | 23 kts | 70° |
| 2026-05-06 15:44 | 50.04284 | 8.53039 | 362 ft | 27 kts | 69° |
| 2026-05-06 15:44 | 50.04351 | 8.53313 | 366 ft | 27 kts | 68° |
| 2026-05-06 15:44 | 50.04398 | 8.53561 | 375 ft | 22 kts | 83° |
| 2026-05-06 15:44 | 50.04412 | 8.53785 | 375 ft | 20 kts | 85° |
| 2026-05-06 15:45 | 50.04426 | 8.53997 | 375 ft | 20 kts | 84° |
| 2026-05-06 15:45 | 50.04439 | 8.54215 | 375 ft | 21 kts | 84° |
| 2026-05-06 15:45 | 50.04452 | 8.54439 | 371 ft | 3 kts | 92° |
| 2026-05-06 15:45 | 50.04451 | 8.54456 | 370 ft | 4 kts | 92° |
| 2026-05-06 15:46 | 50.04442 | 8.54542 | 372 ft | 12 kts | 105° |
| 2026-05-06 15:46 | 50.04424 | 8.54602 | 368 ft | 0 kts | 119° |
| 2026-05-06 15:46 | 50.04423 | 8.54605 | 367 ft | 2 kts | 119° |
| 2026-05-06 15:47 | 50.04385 | 8.54690 | 362 ft | 15 kts | 133° |
| 2026-05-06 15:47 | 50.04290 | 8.54784 | 360 ft | 18 kts | 156° |
| 2026-05-06 15:47 | 50.04161 | 8.54854 | 356 ft | 21 kts | 161° |
| 2026-05-06 15:47 | 50.04025 | 8.54933 | 355 ft | 20 kts | 160° |
| 2026-05-06 15:48 | 50.03919 | 8.54994 | 357 ft | 15 kts | 158° |
| 2026-05-06 15:48 | 50.03848 | 8.55089 | 349 ft | 12 kts | 103° |
| 2026-05-06 15:48 | 50.03850 | 8.55106 | 352 ft | 0 kts | 78° |
| 2026-05-06 15:48 | 50.03854 | 8.55139 | 358 ft | 6 kts | 77° |
| 2026-05-06 15:49 | 50.03871 | 8.55228 | 355 ft | 11 kts | 71° |
| 2026-05-06 15:49 | 50.03907 | 8.55377 | 354 ft | 18 kts | 69° |
| 2026-05-06 15:49 | 50.03956 | 8.55582 | 356 ft | 23 kts | 70° |
| 2026-05-06 15:49 | 50.04013 | 8.55826 | 354 ft | 17 kts | 69° |
| 2026-05-06 15:50 | 50.04028 | 8.55887 | 357 ft | 3 kts | 67° |
| 2026-05-06 15:50 | 50.04036 | 8.55913 | 353 ft | 2 kts | 66° |
| 2026-05-06 15:50 | 50.04042 | 8.55937 | 354 ft | 4 kts | 67° |
| 2026-05-06 15:50 | 50.04061 | 8.56010 | 357 ft | 11 kts | 69° |
| 2026-05-06 15:51 | 50.04095 | 8.56159 | 357 ft | 19 kts | 72° |
| 2026-05-06 15:51 | 50.04149 | 8.56392 | 357 ft | 27 kts | 69° |
| 2026-05-06 15:51 | 50.04223 | 8.56685 | 357 ft | 30 kts | 69° |
| 2026-05-06 15:51 | 50.04295 | 8.56981 | 360 ft | 30 kts | 70° |
| 2026-05-06 15:52 | 50.04366 | 8.57281 | 362 ft | 30 kts | 70° |
| 2026-05-06 15:52 | 50.04439 | 8.57594 | 368 ft | 30 kts | 70° |
| 2026-05-06 15:52 | 50.04511 | 8.57893 | 366 ft | 26 kts | 66° |
| 2026-05-06 15:52 | 50.04579 | 8.58037 | 361 ft | 12 kts | 21° |
| 2026-05-06 15:53 | 50.04614 | 8.58034 | 362 ft | 5 kts | 341° |
| 2026-05-06 15:53 | 50.04656 | 8.58000 | 358 ft | 9 kts | 331° |
| 2026-05-06 15:53 | 50.04718 | 8.57957 | 358 ft | 11 kts | 346° |
| 2026-05-06 15:53 | 50.04788 | 8.58005 | 366 ft | 12 kts | 48° |
| 2026-05-06 15:54 | 50.04823 | 8.58130 | 362 ft | 13 kts | 71° |
| 2026-05-06 15:54 | 50.04848 | 8.58266 | 361 ft | 7 kts | 95° |
| 2026-05-06 15:54 | 50.04845 | 8.58283 | 362 ft | 4 kts | 104° |
| 2026-05-06 15:54 | 50.04831 | 8.58313 | 362 ft | 2 kts | 146° |
| 2026-05-06 15:55 | 50.04825 | 8.58318 | 361 ft | 1 kts | 153° |
| 2026-05-06 15:55 | 50.04799 | 8.58334 | 367 ft | 4 kts | 159° |
| 2026-05-06 15:55 | 50.04785 | 8.58342 | 362 ft | 0 kts | 159° |